createdAt,value
2019-02-17T00:03:46.864Z,96383.00
2019-02-17T00:06:34.954Z,96390.00
2019-02-17T00:09:23.302Z,96390.00
2019-02-17T00:12:11.267Z,96385.00
2019-02-17T00:14:59.673Z,96387.00
2019-02-17T00:17:47.811Z,96391.00
2019-02-17T00:20:36.097Z,96390.00
2019-02-17T00:23:24.663Z,96384.00
2019-02-17T00:26:13.117Z,96376.00
2019-02-17T00:29:01.069Z,96392.00
2019-02-17T00:31:49.642Z,96376.00
2019-02-17T00:34:38.004Z,96389.00
2019-02-17T00:37:25.731Z,96388.00
2019-02-17T00:40:13.718Z,96387.00
2019-02-17T00:43:01.749Z,96390.00
2019-02-17T00:45:49.897Z,96385.00
2019-02-17T00:48:38.062Z,96387.00
2019-02-17T00:51:25.846Z,96389.00
2019-02-17T00:54:13.708Z,96392.00
2019-02-17T00:57:01.504Z,96397.00
2019-02-17T00:59:49.292Z,96394.00
2019-02-17T01:02:37.674Z,96389.00
2019-02-17T01:05:26.308Z,96379.00
2019-02-17T01:08:14.692Z,96389.00
2019-02-17T01:11:02.790Z,96390.00
2019-02-17T01:13:51.489Z,96389.00
2019-02-17T01:16:39.668Z,96386.00
2019-02-17T01:19:27.714Z,96379.00
2019-02-17T01:22:15.554Z,96382.00
2019-02-17T01:25:03.838Z,96380.00
2019-02-17T01:27:52.356Z,96374.00
2019-02-17T01:30:40.240Z,96382.00
2019-02-17T01:33:28.716Z,96377.00
2019-02-17T01:36:16.829Z,96372.00
2019-02-17T01:39:04.809Z,96384.00
2019-02-17T01:41:53.555Z,96371.00
2019-02-17T01:44:41.855Z,96380.00
2019-02-17T01:47:30.379Z,96370.00
2019-02-17T01:50:18.709Z,96372.00
2019-02-17T01:53:07.380Z,96374.00
2019-02-17T01:55:55.885Z,96360.00
2019-02-17T02:01:31.226Z,96351.00
2019-02-17T02:04:19.949Z,96353.00
2019-02-17T02:07:08.471Z,96351.00
2019-02-17T02:09:56.936Z,96352.00
2019-02-17T02:12:44.699Z,96352.00
2019-02-17T02:15:32.652Z,96349.00
2019-02-17T02:18:20.566Z,96351.00
2019-02-17T02:21:08.826Z,96349.00
2019-02-17T02:23:57.075Z,96332.00
2019-02-17T02:26:45.581Z,96335.00
2019-02-17T02:29:40.829Z,96333.00
2019-02-17T02:32:24.341Z,96339.00
2019-02-17T02:35:12.250Z,96336.00
2019-02-17T02:38:00.482Z,96331.00
2019-02-17T02:40:49.036Z,96337.00
2019-02-17T02:43:37.516Z,96330.00
2019-02-17T02:46:25.888Z,96339.00
2019-02-17T02:49:14.418Z,96335.00
2019-02-17T02:52:02.525Z,96335.00
2019-02-17T02:54:50.683Z,96335.00
2019-02-17T02:57:38.402Z,96337.00
2019-02-17T03:00:27.214Z,96332.00
2019-02-17T03:03:14.958Z,96330.00
2019-02-17T03:09:03.078Z,96333.00
2019-02-17T03:11:51.350Z,96332.00
2019-02-17T03:14:39.823Z,96328.00
2019-02-17T03:17:27.908Z,96329.00
2019-02-17T03:20:16.558Z,96333.00
2019-02-17T03:23:04.649Z,96346.00
2019-02-17T03:25:53.020Z,96354.00
2019-02-17T03:28:41.107Z,96343.00
2019-02-17T03:31:29.052Z,96339.00
2019-02-17T03:34:17.478Z,96343.00
2019-02-17T03:37:06.037Z,96345.00
2019-02-17T03:39:54.272Z,96334.00
2019-02-17T03:42:42.183Z,96344.00
2019-02-17T03:45:30.617Z,96341.00
2019-02-17T03:48:18.505Z,96345.00
2019-02-17T03:51:07.003Z,96339.00
2019-02-17T03:53:55.501Z,96340.00
2019-02-17T03:56:43.395Z,96344.00
2019-02-17T03:59:31.187Z,96341.00
2019-02-17T04:02:19.735Z,96349.00
2019-02-17T04:05:08.124Z,96343.00
2019-02-17T04:07:56.255Z,96345.00
2019-02-17T04:10:44.118Z,96345.00
2019-02-17T04:13:32.095Z,96349.00
2019-02-17T04:16:20.557Z,96341.00
2019-02-17T04:19:08.890Z,96342.00
2019-02-17T04:21:57.103Z,96333.00
2019-02-17T04:24:45.319Z,96343.00
2019-02-17T04:27:33.230Z,96344.00
2019-02-17T04:30:29.268Z,96336.00
2019-02-17T04:33:11.862Z,96341.00
2019-02-17T04:35:59.739Z,96345.00
2019-02-17T04:38:48.204Z,96331.00
2019-02-17T04:41:36.461Z,96338.00
2019-02-17T04:47:16.449Z,96330.00
2019-02-17T04:50:04.544Z,96341.00
2019-02-17T04:52:52.661Z,96338.00
2019-02-17T04:55:40.649Z,96348.00
2019-02-17T04:58:28.863Z,96337.00
2019-02-17T05:01:16.759Z,96343.00
2019-02-17T05:04:04.901Z,96335.00
2019-02-17T05:06:52.807Z,96340.00
2019-02-17T05:09:40.951Z,96344.00
2019-02-17T05:12:29.637Z,96342.00
2019-02-17T05:15:17.897Z,96340.00
2019-02-17T05:18:05.966Z,96341.00
2019-02-17T05:20:53.784Z,96346.00
2019-02-17T05:23:41.870Z,96338.00
2019-02-17T05:26:29.938Z,96334.00
2019-02-17T05:29:17.956Z,96340.00
2019-02-17T05:32:06.015Z,96345.00
2019-02-17T05:34:54.068Z,96341.00
2019-02-17T05:37:42.391Z,96341.00
2019-02-17T05:40:30.443Z,96348.00
2019-02-17T05:43:18.653Z,96341.00
2019-02-17T05:46:06.706Z,96350.00
2019-02-17T05:48:55.137Z,96333.00
2019-02-17T05:51:42.963Z,96351.00
2019-02-17T05:54:31.458Z,96351.00
2019-02-17T05:57:19.682Z,96356.00
2019-02-17T06:00:07.745Z,96352.00
2019-02-17T06:02:55.903Z,96355.00
2019-02-17T06:05:44.454Z,96346.00
2019-02-17T06:08:32.840Z,96354.00
2019-02-17T06:11:20.722Z,96359.00
2019-02-17T06:14:08.689Z,96358.00
2019-02-17T06:16:56.701Z,96368.00
2019-02-17T06:19:45.105Z,96366.00
2019-02-17T06:22:33.658Z,96360.00
2019-02-17T06:25:22.058Z,96371.00
2019-02-17T06:28:10.168Z,96376.00
2019-02-17T06:30:58.423Z,96372.00
2019-02-17T06:33:46.535Z,96373.00
2019-02-17T06:36:35.070Z,96367.00
2019-02-17T06:39:23.451Z,96372.00
2019-02-17T06:42:12.007Z,96378.00
2019-02-17T06:45:00.332Z,96378.00
2019-02-17T06:47:48.237Z,96382.00
2019-02-17T06:50:36.153Z,96383.00
2019-02-17T06:53:24.171Z,96388.00
2019-02-17T06:56:30.923Z,96390.00
2019-02-17T06:59:19.647Z,96385.00
2019-02-17T07:02:07.986Z,96386.00
2019-02-17T07:05:20.898Z,96389.00
2019-02-17T07:08:10.960Z,96389.00
2019-02-17T07:10:58.964Z,96379.00
2019-02-17T07:13:47.040Z,96389.00
2019-02-17T07:16:35.482Z,96396.00
2019-02-17T07:19:23.934Z,96391.00
2019-02-17T07:22:12.416Z,96384.00
2019-02-17T07:25:01.111Z,96389.00
2019-02-17T07:27:49.276Z,96387.00
2019-02-17T07:30:37.499Z,96385.00
2019-02-17T07:33:25.382Z,96394.00
2019-02-17T07:36:13.417Z,96388.00
2019-02-17T07:39:01.375Z,96390.00
2019-02-17T07:41:49.128Z,96389.00
2019-02-17T07:44:37.147Z,96395.00
2019-02-17T07:47:25.444Z,96382.00
2019-02-17T07:50:13.911Z,96394.00
2019-02-17T07:53:02.412Z,96393.00
2019-02-17T07:55:50.183Z,96390.00
2019-02-17T07:58:38.324Z,96395.00
2019-02-17T08:01:27.026Z,96393.00
2019-02-17T08:04:15.049Z,96383.00
2019-02-17T08:07:03.118Z,96386.00
2019-02-17T08:09:51.273Z,96389.00
2019-02-17T08:12:39.347Z,96390.00
2019-02-17T08:15:27.645Z,96391.00
2019-02-17T08:18:16.232Z,96374.00
2019-02-17T08:21:04.915Z,96385.00
2019-02-17T08:23:52.940Z,96378.00
2019-02-17T08:26:41.076Z,96380.00
2019-02-17T08:29:29.111Z,96378.00
2019-02-17T08:32:17.528Z,96369.00
2019-02-17T08:35:06.065Z,96382.00
2019-02-17T08:37:54.154Z,96374.00
2019-02-17T08:40:42.046Z,96369.00
2019-02-17T08:49:02.032Z,96365.00
2019-02-17T08:51:50.087Z,96360.00
2019-02-17T08:54:38.033Z,96373.00
2019-02-17T08:57:26.657Z,96358.00
2019-02-17T09:00:15.179Z,96350.00
2019-02-17T09:03:03.600Z,96359.00
2019-02-17T09:05:52.218Z,96355.00
2019-02-17T09:08:40.449Z,96362.00
2019-02-17T09:11:28.621Z,96351.00
2019-02-17T09:14:16.552Z,96353.00
2019-02-17T09:17:04.305Z,96350.00
2019-02-17T09:19:52.905Z,96358.00
2019-02-17T09:22:40.875Z,96345.00
2019-02-17T09:25:29.393Z,96347.00
2019-02-17T09:28:17.497Z,96345.00
2019-02-17T09:31:06.044Z,96344.00
2019-02-17T09:33:54.363Z,96342.00
2019-02-17T09:36:42.984Z,96345.00
2019-02-17T09:39:31.502Z,96337.00
2019-02-17T09:42:19.874Z,96330.00
2019-02-17T09:45:08.570Z,96341.00
2019-02-17T09:47:56.881Z,96341.00
2019-02-17T09:50:44.961Z,96335.00
2019-02-17T09:53:33.167Z,96336.00
2019-02-17T09:56:21.474Z,96329.00
2019-02-17T09:59:09.551Z,96333.00
2019-02-17T10:01:57.670Z,96330.00
2019-02-17T10:04:45.434Z,96326.00
2019-02-17T10:07:33.397Z,96324.00
2019-02-17T10:10:21.732Z,96329.00
2019-02-17T10:13:10.626Z,96324.00
2019-02-17T10:15:59.229Z,96328.00
2019-02-17T10:18:47.882Z,96330.00
2019-02-17T10:21:35.866Z,96319.00
2019-02-17T10:24:24.001Z,96318.00
2019-02-17T10:27:12.317Z,96324.00
2019-02-17T10:30:02.118Z,96319.00
2019-02-17T10:32:50.339Z,96320.00
2019-02-17T10:35:40.423Z,96320.00
2019-02-17T10:38:28.643Z,96317.00
2019-02-17T10:41:17.361Z,96319.00
2019-02-17T10:44:05.162Z,96317.00
2019-02-17T10:46:53.263Z,96309.00
2019-02-17T10:49:41.424Z,96304.00
2019-02-17T10:52:29.652Z,96306.00
2019-02-17T10:55:17.364Z,96296.00
2019-02-17T10:58:05.950Z,96286.00
2019-02-17T11:00:53.858Z,96291.00
2019-02-17T11:03:41.678Z,96286.00
2019-02-17T11:06:29.736Z,96281.00
2019-02-17T11:09:21.150Z,96278.00
2019-02-17T11:12:09.788Z,96273.00
2019-02-17T11:14:58.426Z,96273.00
2019-02-17T11:17:46.490Z,96277.00
2019-02-17T11:26:31.493Z,96253.00
2019-02-17T11:32:19.864Z,96245.00
2019-02-17T11:35:08.099Z,96250.00
2019-02-17T11:37:56.035Z,96242.00
2019-02-17T11:40:44.041Z,96236.00
2019-02-17T11:43:31.937Z,96232.00
2019-02-17T11:46:20.454Z,96229.00
2019-02-17T11:49:09.576Z,96228.00
2019-02-17T11:51:57.941Z,96220.00
2019-02-17T11:54:47.744Z,96212.00
2019-02-17T11:57:35.519Z,96214.00
2019-02-17T12:00:23.731Z,96212.00
2019-02-17T12:03:11.796Z,96211.00
2019-02-17T12:05:59.918Z,96205.00
2019-02-17T12:08:48.038Z,96207.00
2019-02-17T12:11:39.004Z,96196.00
2019-02-17T12:14:27.707Z,96198.00
2019-02-17T12:17:15.550Z,96194.00
2019-02-17T12:23:42.146Z,96188.00
2019-02-17T12:26:50.047Z,96188.00
2019-02-17T12:29:45.235Z,96188.00
2019-02-17T12:32:33.332Z,96185.00
2019-02-17T12:35:21.868Z,96180.00
2019-02-17T12:38:10.504Z,96179.00
2019-02-17T12:40:58.462Z,96173.00
2019-02-17T12:43:46.656Z,96169.00
2019-02-17T12:46:34.760Z,96156.00
2019-02-17T12:49:22.872Z,96168.00
2019-02-17T12:52:10.859Z,96155.00
2019-02-17T12:54:59.055Z,96164.00
2019-02-17T12:57:46.738Z,96160.00
2019-02-17T13:00:35.293Z,96155.00
2019-02-17T13:03:28.424Z,96156.00
2019-02-17T13:06:12.969Z,96163.00
2019-02-17T13:09:01.017Z,96156.00
2019-02-17T13:11:49.196Z,96142.00
2019-02-17T13:14:37.316Z,96147.00
2019-02-17T13:17:25.785Z,96139.00
2019-02-17T13:20:14.107Z,96129.00
2019-02-17T13:23:01.869Z,96138.00
2019-02-17T13:25:50.260Z,96137.00
2019-02-17T13:28:38.628Z,96132.00
2019-02-17T13:31:26.880Z,96129.00
2019-02-17T13:34:15.525Z,96125.00
2019-02-17T13:37:03.868Z,96124.00
2019-02-17T13:39:51.748Z,96125.00
2019-02-17T13:42:39.834Z,96125.00
2019-02-17T13:45:27.862Z,96119.00
2019-02-17T13:48:16.206Z,96123.00
2019-02-17T13:51:04.350Z,96123.00
2019-02-17T13:53:52.317Z,96117.00
2019-02-17T13:56:40.496Z,96123.00
2019-02-17T13:59:28.438Z,96121.00
2019-02-17T14:02:16.468Z,96120.00
2019-02-17T14:05:04.286Z,96116.00
2019-02-17T14:07:52.211Z,96117.00
2019-02-17T14:10:40.507Z,96111.00
2019-02-17T14:13:28.771Z,96118.00
2019-02-17T14:16:16.887Z,96113.00
2019-02-17T14:19:04.713Z,96114.00
2019-02-17T14:21:52.773Z,96111.00
2019-02-17T14:24:40.725Z,96119.00
2019-02-17T14:27:28.695Z,96114.00
2019-02-17T14:30:17.251Z,96117.00
2019-02-17T14:33:05.185Z,96107.00
2019-02-17T14:35:53.576Z,96105.00
2019-02-17T14:38:42.124Z,96108.00
2019-02-17T14:41:29.891Z,96105.00
2019-02-17T14:44:18.059Z,96101.00
2019-02-17T14:47:06.625Z,96101.00
2019-02-17T14:49:55.392Z,96107.00
2019-02-17T14:52:43.157Z,96106.00
2019-02-17T14:55:31.265Z,96098.00
2019-02-17T14:58:19.666Z,96099.00
2019-02-17T15:01:07.710Z,96095.00
2019-02-17T15:03:55.784Z,96096.00
2019-02-17T15:06:43.816Z,96094.00
2019-02-17T15:09:32.171Z,96090.00
2019-02-17T15:12:20.215Z,96084.00
2019-02-17T15:15:08.713Z,96090.00
2019-02-17T15:17:56.957Z,96087.00
2019-02-17T15:20:45.381Z,96084.00
2019-02-17T15:23:33.646Z,96088.00
2019-02-17T15:26:21.937Z,96087.00
2019-02-17T15:29:09.681Z,96082.00
2019-02-17T15:31:58.202Z,96086.00
2019-02-17T15:34:46.837Z,96081.00
2019-02-17T15:37:35.290Z,96078.00
2019-02-17T15:40:23.794Z,96078.00
2019-02-17T15:43:12.098Z,96077.00
2019-02-17T15:46:00.273Z,96070.00
2019-02-17T15:48:48.423Z,96070.00
2019-02-17T15:51:39.346Z,96072.00
2019-02-17T15:54:27.943Z,96069.00
2019-02-17T15:57:16.053Z,96066.00
2019-02-17T16:00:04.840Z,96067.00
2019-02-17T16:02:53.252Z,96075.00
2019-02-17T16:05:41.850Z,96071.00
2019-02-17T16:08:30.308Z,96068.00
2019-02-17T16:11:18.880Z,96070.00
2019-02-17T16:14:06.974Z,96072.00
2019-02-17T16:16:55.024Z,96065.00
2019-02-17T16:19:42.930Z,96068.00
2019-02-17T16:22:30.863Z,96070.00
2019-02-17T16:25:18.983Z,96063.00
2019-02-17T16:28:07.139Z,96066.00
2019-02-17T16:30:54.927Z,96073.00
2019-02-17T16:33:43.265Z,96068.00
2019-02-17T16:36:31.443Z,96068.00
2019-02-17T16:39:19.728Z,96070.00
2019-02-17T16:42:08.366Z,96072.00
2019-02-17T16:44:56.944Z,96072.00
2019-02-17T16:47:45.556Z,96077.00
2019-02-17T16:53:19.371Z,96076.00
2019-02-17T16:56:07.391Z,96078.00
2019-02-17T16:58:55.194Z,96074.00
2019-02-17T17:01:43.357Z,96073.00
2019-02-17T17:04:31.603Z,96081.00
2019-02-17T17:07:19.937Z,96071.00
2019-02-17T17:10:07.934Z,96081.00
2019-02-17T17:12:55.888Z,96066.00
2019-02-17T17:15:44.137Z,96079.00
2019-02-17T17:18:31.956Z,96080.00
2019-02-17T17:21:20.286Z,96072.00
2019-02-17T17:24:11.573Z,96077.00
2019-02-17T17:26:59.594Z,96080.00
2019-02-17T17:29:47.364Z,96089.00
2019-02-17T17:32:35.620Z,96091.00
2019-02-17T17:35:23.738Z,96090.00
2019-02-17T17:38:12.417Z,96101.00
2019-02-17T17:41:00.433Z,96099.00
2019-02-17T17:43:51.275Z,96097.00
2019-02-17T17:46:39.069Z,96095.00
2019-02-17T17:49:28.575Z,96107.00
2019-02-17T17:52:18.117Z,96101.00
2019-02-17T17:55:05.928Z,96100.00
2019-02-17T17:57:54.464Z,96106.00
2019-02-17T18:00:43.571Z,96099.00
2019-02-17T18:03:32.583Z,96107.00
2019-02-17T18:06:20.864Z,96103.00
2019-02-17T18:12:00.157Z,96120.00
2019-02-17T18:17:40.110Z,96123.00
2019-02-17T18:20:28.043Z,96117.00
2019-02-17T18:26:08.348Z,96114.00
2019-02-17T18:28:56.874Z,96118.00
2019-02-17T18:31:45.324Z,96117.00
2019-02-17T18:37:29.525Z,96122.00
2019-02-17T18:40:18.456Z,96114.00
2019-02-17T18:43:06.232Z,96110.00
2019-02-17T18:45:54.641Z,96107.00
2019-02-17T18:48:43.591Z,96105.00
2019-02-17T18:51:31.384Z,96110.00
2019-02-17T18:54:19.287Z,96104.00
2019-02-17T18:57:08.493Z,96113.00
2019-02-17T19:03:00.239Z,96111.00
2019-02-17T19:05:48.718Z,96108.00
2019-02-17T19:08:37.368Z,96107.00
2019-02-17T19:11:26.095Z,96112.00
2019-02-17T19:14:14.460Z,96109.00
2019-02-17T19:17:02.676Z,96112.00
2019-02-17T19:19:50.723Z,96120.00
2019-02-17T19:25:24.647Z,96111.00
2019-02-17T19:28:12.716Z,96120.00
2019-02-17T19:31:01.244Z,96114.00
2019-02-17T19:36:36.609Z,96113.00
2019-02-17T19:39:24.480Z,96112.00
2019-02-17T19:42:13.304Z,96117.00
2019-02-17T19:45:01.554Z,96110.00
2019-02-17T19:53:47.240Z,96121.00
2019-02-17T19:56:36.896Z,96104.00
2019-02-17T19:59:26.834Z,96105.00
2019-02-17T20:05:15.879Z,96115.00
2019-02-17T20:08:06.519Z,96110.00
2019-02-17T20:10:55.869Z,96109.00
2019-02-17T20:16:37.036Z,96123.00
2019-02-17T20:19:25.857Z,96113.00
2019-02-17T20:22:16.495Z,96113.00
2019-02-17T20:25:04.933Z,96110.00
2019-02-17T20:27:53.741Z,96099.00
2019-02-17T20:30:42.510Z,96112.00
2019-02-17T20:33:30.572Z,96110.00
2019-02-17T20:36:18.450Z,96110.00
2019-02-17T20:39:06.940Z,96096.00
2019-02-17T20:41:54.901Z,96105.00
2019-02-17T20:44:42.778Z,96107.00
2019-02-17T20:47:31.128Z,96108.00
2019-02-17T20:50:19.951Z,96102.00
2019-02-17T20:53:08.058Z,96099.00
2019-02-17T20:55:56.128Z,96106.00
2019-02-17T20:58:43.769Z,96094.00
2019-02-17T21:01:31.758Z,96091.00
2019-02-17T21:04:20.188Z,96099.00
2019-02-17T21:07:08.655Z,96093.00
2019-02-17T21:09:57.407Z,96088.00
2019-02-17T21:12:46.396Z,96088.00
2019-02-17T21:18:33.108Z,96092.00
2019-02-17T21:21:22.096Z,96095.00
2019-02-17T21:24:11.564Z,96092.00
2019-02-17T21:27:01.280Z,96096.00
2019-02-17T21:32:52.559Z,96092.00
2019-02-17T21:38:34.786Z,96087.00
2019-02-17T21:41:24.108Z,96091.00
2019-02-17T21:44:16.612Z,96091.00
2019-02-17T21:47:04.425Z,96073.00
2019-02-17T21:49:54.625Z,96078.00
2019-02-17T21:52:45.075Z,96082.00
2019-02-17T21:55:33.367Z,96076.00
2019-02-17T22:01:16.683Z,96078.00
2019-02-17T22:04:05.479Z,96076.00
2019-02-17T22:06:58.255Z,96078.00
2019-02-17T22:09:46.645Z,96075.00
2019-02-17T22:18:26.274Z,96076.00
2019-02-17T22:21:15.482Z,96073.00
2019-02-17T22:26:57.062Z,96071.00
2019-02-17T22:32:42.409Z,96067.00
2019-02-17T22:38:23.430Z,96067.00
2019-02-17T22:41:13.458Z,96062.00
2019-02-17T22:44:01.888Z,96075.00
2019-02-17T22:46:51.058Z,96070.00
2019-02-17T22:55:46.975Z,96063.00
2019-02-17T22:58:35.578Z,96074.00
2019-02-17T23:04:18.948Z,96058.00
2019-02-17T23:07:09.358Z,96063.00
2019-02-17T23:16:14.473Z,96059.00
2019-02-17T23:19:03.955Z,96063.00
2019-02-17T23:27:32.645Z,96073.00
2019-02-17T23:30:20.679Z,96078.00
2019-02-17T23:33:09.720Z,96070.00
2019-02-17T23:38:57.589Z,96072.00
2019-02-17T23:44:40.147Z,96063.00
2019-02-17T23:50:22.297Z,96058.00
2019-02-17T23:56:08.276Z,96069.00
2019-02-17T23:58:57.808Z,96061.00
